Time;durP1;ratioP1;P1;durP2;ratioP2;P2;SDS_P1;SDS_P2;PMS_P1;PMS_P2;Temp;Humidity;BMP_temperature;BMP_pressure;BME280_temperature;BME280_humidity;BME280_pressure;Samples;Min_cycle;Max_cycle;Signal;HPM_P1;HPM_P2
2021/11/28 00:03:47;;;;;;;4.83;3.60;;;4.40;96.80;;;;;;8265886;28;20494;-81
2021/11/28 00:08:14;;;;;;;6.43;4.07;;;4.40;96.80;;;;;;8285449;28;20468;-79
2021/11/28 00:16:19;;;;;;;4.63;4.13;;;4.50;96.80;;;;;;8300625;28;20472;-80
2021/11/28 00:20:20;;;;;;;3.57;3.23;;;4.60;96.80;;;;;;8281451;28;20468;-79
2021/11/28 00:24:21;;;;;;;6.60;4.90;;;4.60;96.70;;;;;;8264690;28;20856;-80
2021/11/28 00:28:22;;;;;;;4.93;3.50;;;4.70;96.80;;;;;;8283689;28;20205;-83
2021/11/28 00:32:22;;;;;;;4.03;3.73;;;4.70;96.80;;;;;;8264941;28;20199;-81
2021/11/28 00:36:23;;;;;;;3.43;3.13;;;4.70;96.80;;;;;;8274809;28;20218;-81
2021/11/28 00:40:24;;;;;;;4.57;4.17;;;4.70;96.70;;;;;;8293002;28;20201;-82
2021/11/28 00:44:24;;;;;;;5.03;3.70;;;4.80;96.70;;;;;;8267992;28;20280;-81
2021/11/28 00:48:29;;;;;;;4.90;3.40;;;4.80;96.60;;;;;;8262585;28;20193;-80
2021/11/28 00:52:31;;;;;;;3.27;3.00;;;4.80;96.60;;;;;;8280547;28;20188;-81
2021/11/28 00:56:32;;;;;;;4.70;4.17;;;4.70;96.60;;;;;;8277598;28;20467;-81
2021/11/28 01:00:33;;;;;;;5.67;4.07;;;4.70;96.60;;;;;;8262309;28;20462;-82
2021/11/28 01:04:34;;;;;;;3.90;3.60;;;4.60;96.60;;;;;;8278228;28;20295;-81
2021/11/28 01:08:35;;;;;;;3.53;3.30;;;4.60;96.70;;;;;;8275197;28;20248;-81
2021/11/28 01:12:36;;;;;;;3.97;3.53;;;4.60;96.70;;;;;;8268056;28;20440;-80
2021/11/28 01:16:37;;;;;;;6.10;4.17;;;4.70;96.70;;;;;;8256379;28;20216;-80
2021/11/28 01:20:38;;;;;;;6.70;3.80;;;4.70;96.60;;;;;;8252847;28;20506;-80
2021/11/28 01:24:39;;;;;;;4.67;4.07;;;4.70;96.60;;;;;;8268054;28;20471;-81
2021/11/28 01:28:40;;;;;;;4.17;3.07;;;4.80;96.50;;;;;;8273306;28;20204;-79
2021/11/28 01:32:41;;;;;;;4.27;3.80;;;4.80;96.40;;;;;;8271933;28;20188;-81
2021/11/28 01:36:42;;;;;;;5.00;4.10;;;4.80;96.40;;;;;;8273744;28;20460;-79
2021/11/28 01:40:43;;;;;;;6.67;4.00;;;4.80;96.30;;;;;;8271632;28;20508;-82
2021/11/28 01:44:43;;;;;;;4.93;4.43;;;4.80;96.40;;;;;;8266141;28;20440;-80
2021/11/28 01:48:44;;;;;;;5.07;3.30;;;4.70;96.50;;;;;;8266785;28;20676;-82
2021/11/28 01:52:45;;;;;;;3.60;3.40;;;4.60;96.60;;;;;;8250261;28;20185;-80
2021/11/28 01:56:48;;;;;;;7.43;4.80;;;4.60;96.70;;;;;;8269737;28;20479;-80
2021/11/28 02:00:53;;;;;;;5.80;4.30;;;4.60;96.80;;;;;;8262813;28;20189;-81
2021/11/28 02:04:54;;;;;;;6.63;4.63;;;4.60;96.80;;;;;;8293099;23;20598;-79
2021/11/28 02:08:55;;;;;;;7.00;4.30;;;4.60;96.90;;;;;;8302217;28;21092;-78
2021/11/28 02:12:56;;;;;;;5.27;4.53;;;4.60;96.90;;;;;;8301449;28;20443;-79
2021/11/28 02:16:57;;;;;;;4.10;3.90;;;4.60;96.90;;;;;;8284006;28;20478;-81
2021/11/28 02:21:00;;;;;;;5.37;4.87;;;4.60;97.00;;;;;;8292129;28;20236;-80
2021/11/28 02:25:06;;;;;;;5.30;4.80;;;4.60;97.00;;;;;;8303873;28;20529;-79
2021/11/28 02:29:07;;;;;;;6.57;5.17;;;4.60;97.10;;;;;;8279302;28;20442;-79
2021/11/28 02:33:08;;;;;;;14.83;4.53;;;4.50;97.10;;;;;;8285863;28;20919;-79
2021/11/28 02:37:08;;;;;;;7.60;5.00;;;4.50;97.30;;;;;;8288374;28;20217;-82
2021/11/28 02:41:09;;;;;;;13.73;5.67;;;4.50;97.40;;;;;;8298513;28;20941;-79
2021/11/28 02:45:11;;;;;;;8.17;5.20;;;4.50;97.50;;;;;;8314565;28;20306;-80
2021/11/28 02:49:15;;;;;;;14.80;6.03;;;4.50;97.60;;;;;;8317768;28;20194;-79
2021/11/28 02:53:16;;;;;;;9.07;5.67;;;4.50;97.60;;;;;;8294308;28;20439;-79
2021/11/28 02:57:17;;;;;;;13.67;5.23;;;4.50;97.70;;;;;;8307847;28;20475;-79
2021/11/28 03:01:20;;;;;;;14.00;5.77;;;4.50;97.70;;;;;;8283539;28;20402;-78
2021/11/28 03:05:20;;;;;;;8.17;4.97;;;4.50;97.70;;;;;;8305528;28;20228;-80
2021/11/28 03:09:21;;;;;;;10.40;4.57;;;4.60;97.80;;;;;;8285446;28;20454;-80
2021/11/28 03:13:29;;;;;;;8.13;6.20;;;4.60;97.70;;;;;;8287882;28;20207;-81
2021/11/28 03:17:30;;;;;;;8.97;5.50;;;4.60;97.60;;;;;;8301999;28;20184;-79
2021/11/28 03:21:33;;;;;;;6.20;5.60;;;4.60;97.50;;;;;;8301653;28;20500;-80
2021/11/28 03:25:34;;;;;;;5.73;5.13;;;4.60;97.60;;;;;;8312512;28;20807;-80
2021/11/28 03:29:35;;;;;;;3.97;3.53;;;4.60;97.60;;;;;;8309238;28;20508;-80
2021/11/28 03:33:38;;;;;;;5.97;5.10;;;4.60;97.60;;;;;;8316320;28;20439;-81
2021/11/28 03:37:38;;;;;;;7.13;5.13;;;4.60;97.70;;;;;;8290404;28;20192;-80
2021/11/28 03:41:43;;;;;;;11.53;5.07;;;4.60;97.60;;;;;;8310432;28;20518;-80
2021/11/28 03:45:43;;;;;;;5.40;4.40;;;4.60;97.50;;;;;;8310087;28;20188;-80
2021/11/28 03:49:44;;;;;;;8.50;4.30;;;4.60;97.50;;;;;;8311402;28;20530;-80
2021/11/28 03:53:45;;;;;;;6.70;3.93;;;4.70;97.40;;;;;;8311927;28;20191;-81
2021/11/28 03:57:46;;;;;;;3.93;3.63;;;4.70;97.40;;;;;;8321250;28;20442;-79
2021/11/28 04:01:48;;;;;;;6.13;4.80;;;4.80;97.30;;;;;;8317375;28;20440;-80
2021/11/28 04:05:49;;;;;;;4.30;3.70;;;4.90;97.20;;;;;;8309653;28;20231;-79
2021/11/28 04:09:49;;;;;;;4.13;3.57;;;4.90;97.20;;;;;;8317079;28;20449;-80
2021/11/28 04:13:50;;;;;;;5.07;3.87;;;4.90;97.20;;;;;;8310635;28;20187;-79
2021/11/28 04:17:50;;;;;;;6.30;3.70;;;4.90;97.20;;;;;;8306836;28;20252;-80
2021/11/28 04:21:51;;;;;;;6.20;3.87;;;4.90;97.20;;;;;;8300274;28;20287;-81
2021/11/28 04:25:52;;;;;;;3.70;3.00;;;4.90;97.10;;;;;;8314774;28;20189;-81
2021/11/28 04:29:53;;;;;;;4.73;3.27;;;4.80;97.10;;;;;;8316526;28;20209;-81
2021/11/28 04:33:53;;;;;;;6.30;2.87;;;4.90;97.10;;;;;;8303355;28;20909;-80
2021/11/28 04:37:54;;;;;;;3.00;2.70;;;4.90;97.10;;;;;;8305917;28;20655;-79
2021/11/28 04:41:55;;;;;;;5.33;3.50;;;4.90;97.00;;;;;;8301620;28;20240;-80
2021/11/28 04:45:55;;;;;;;2.60;2.40;;;4.90;97.00;;;;;;8307516;28;20216;-80
2021/11/28 04:49:56;;;;;;;5.03;2.50;;;4.90;97.00;;;;;;8306981;28;20184;-80
2021/11/28 04:53:58;;;;;;;2.00;1.90;;;4.90;97.00;;;;;;8298024;28;20204;-80
2021/11/28 04:57:58;;;;;;;3.90;2.70;;;4.90;97.20;;;;;;8311733;28;20181;-78
2021/11/28 05:01:59;;;;;;;4.00;2.93;;;4.90;97.20;;;;;;8314031;28;20451;-80
2021/11/28 05:06:00;;;;;;;4.10;3.23;;;4.90;97.20;;;;;;8288312;28;20231;-80
2021/11/28 05:10:01;;;;;;;3.90;3.50;;;4.90;97.20;;;;;;8303838;28;20650;-80
2021/11/28 05:14:02;;;;;;;3.17;2.57;;;4.90;97.20;;;;;;8302835;28;20212;-80
2021/11/28 05:18:03;;;;;;;2.90;2.47;;;4.90;97.30;;;;;;8286283;28;20443;-79
2021/11/28 05:22:06;;;;;;;3.30;2.90;;;4.90;97.40;;;;;;8308694;28;20446;-81
2021/11/28 05:26:07;;;;;;;5.33;3.27;;;4.90;97.40;;;;;;8311404;28;20204;-79
2021/11/28 05:30:08;;;;;;;3.13;2.90;;;4.90;97.40;;;;;;8311960;28;20469;-80
2021/11/28 05:34:09;;;;;;;3.03;2.77;;;4.80;97.40;;;;;;8298557;28;20216;-78
2021/11/28 05:38:12;;;;;;;3.17;2.97;;;4.90;97.40;;;;;;8308980;28;20506;-80
2021/11/28 05:42:13;;;;;;;6.83;2.67;;;4.90;97.40;;;;;;8305749;28;20188;-80
2021/11/28 05:46:14;;;;;;;4.27;2.90;;;4.90;97.40;;;;;;8303157;28;20469;-80
2021/11/28 05:50:15;;;;;;;2.97;2.73;;;4.90;97.30;;;;;;8305626;28;20183;-80
2021/11/28 05:54:16;;;;;;;5.93;3.87;;;5.00;97.30;;;;;;8286137;28;20212;-81
2021/11/28 05:58:17;;;;;;;3.40;3.03;;;5.00;97.30;;;;;;8283610;28;20486;-81
2021/11/28 06:02:17;;;;;;;8.10;3.23;;;5.10;97.30;;;;;;8287322;28;20188;-80
2021/11/28 06:06:18;;;;;;;3.17;2.87;;;5.10;97.20;;;;;;8286121;28;20479;-78
2021/11/28 06:10:22;;;;;;;2.50;2.30;;;5.10;97.20;;;;;;8306745;28;20189;-80
2021/11/28 06:14:23;;;;;;;2.47;2.27;;;5.20;97.20;;;;;;8299737;28;20223;-79
2021/11/28 06:18:24;;;;;;;3.33;3.03;;;5.20;97.20;;;;;;8287031;28;21255;-80
2021/11/28 06:22:25;;;;;;;3.13;2.70;;;5.20;97.10;;;;;;8307801;28;20276;-79
2021/11/28 06:26:26;;;;;;;4.97;3.40;;;5.20;97.10;;;;;;8303358;28;20443;-79
2021/11/28 06:30:26;;;;;;;4.30;3.50;;;5.20;97.10;;;;;;8304501;28;20196;-82
2021/11/28 06:34:27;;;;;;;5.03;3.20;;;5.20;97.10;;;;;;8303798;28;20315;-79
2021/11/28 06:38:28;;;;;;;7.13;3.80;;;5.30;97.10;;;;;;8306965;28;20180;-80
2021/11/28 06:42:31;;;;;;;6.97;3.70;;;5.30;97.00;;;;;;8284612;28;20184;-82
2021/11/28 06:46:32;;;;;;;3.60;3.30;;;5.30;97.00;;;;;;8284287;28;20180;-80
2021/11/28 06:50:36;;;;;;;3.57;2.83;;;5.30;97.00;;;;;;8285034;28;20436;-80
2021/11/28 06:54:36;;;;;;;4.83;3.07;;;5.30;97.10;;;;;;8289567;28;20255;-80
2021/11/28 06:58:43;;;;;;;5.10;3.70;;;5.30;97.10;;;;;;8308865;28;20443;-80
2021/11/28 07:02:44;;;;;;;5.60;3.97;;;5.30;97.10;;;;;;8294649;28;20470;-80
2021/11/28 07:06:45;;;;;;;4.20;2.37;;;5.20;97.10;;;;;;8288069;28;20475;-81
2021/11/28 07:10:45;;;;;;;5.37;3.70;;;5.20;97.10;;;;;;8311519;28;20318;-79
2021/11/28 07:14:46;;;;;;;11.40;4.90;;;5.30;97.20;;;;;;8311955;28;20538;-81
2021/11/28 07:18:48;;;;;;;5.23;3.33;;;5.30;97.20;;;;;;8316822;28;20188;-79
2021/11/28 07:22:48;;;;;;;4.13;2.77;;;5.40;97.10;;;;;;8300921;28;23408;-80
2021/11/28 07:26:49;;;;;;;3.10;2.80;;;5.40;97.00;;;;;;8306682;28;20445;-80
2021/11/28 07:30:51;;;;;;;8.27;3.00;;;5.40;96.90;;;;;;8291714;28;20216;-78
2021/11/28 07:34:52;;;;;;;5.17;4.63;;;5.40;96.90;;;;;;8293272;28;20224;-77
2021/11/28 07:38:52;;;;;;;4.10;2.93;;;5.30;97.10;;;;;;8299674;28;20443;-78
2021/11/28 07:42:53;;;;;;;6.27;3.90;;;5.20;97.30;;;;;;8281180;28;20181;-78
2021/11/28 07:46:53;;;;;;;4.63;4.07;;;5.10;97.40;;;;;;8275422;28;20188;-79
2021/11/28 07:50:54;;;;;;;7.70;4.37;;;5.10;97.60;;;;;;8276014;28;20181;-77
2021/11/28 07:54:55;;;;;;;5.77;3.50;;;5.10;97.60;;;;;;8301429;28;20212;-77
2021/11/28 07:58:56;;;;;;;6.13;3.90;;;5.20;97.60;;;;;;8298784;28;20177;-81
2021/11/28 08:02:56;;;;;;;5.13;4.57;;;5.20;97.60;;;;;;8314941;28;20180;-82
2021/11/28 08:06:59;;;;;;;6.87;5.20;;;5.20;97.60;;;;;;8304754;28;20228;-80
2021/11/28 08:11:00;;;;;;;5.47;4.97;;;5.20;97.70;;;;;;8291275;28;20176;-81
2021/11/28 08:15:01;;;;;;;11.13;5.07;;;5.30;97.60;;;;;;8308504;28;20525;-81
2021/11/28 08:19:03;;;;;;;6.77;4.63;;;5.30;97.50;;;;;;8310038;28;20439;-79
2021/11/28 08:23:04;;;;;;;6.23;4.87;;;5.30;97.50;;;;;;8313276;28;20649;-80
2021/11/28 08:27:05;;;;;;;6.57;4.63;;;5.40;97.50;;;;;;8315296;28;20859;-79
2021/11/28 08:31:06;;;;;;;5.90;4.20;;;5.40;97.50;;;;;;8325786;28;20477;-80
2021/11/28 08:35:09;;;;;;;5.80;4.40;;;5.40;97.40;;;;;;8332231;28;20483;-80
2021/11/28 08:39:10;;;;;;;7.13;5.00;;;5.40;97.40;;;;;;8299313;28;20192;-81
2021/11/28 08:43:10;;;;;;;8.40;5.43;;;5.40;97.40;;;;;;8292738;28;20490;-80
2021/11/28 08:47:11;;;;;;;6.07;5.00;;;5.50;97.40;;;;;;8309302;28;20195;-79
2021/11/28 08:51:12;;;;;;;8.17;5.70;;;5.50;97.40;;;;;;8289076;28;20176;-80
2021/11/28 08:55:16;;;;;;;9.57;5.40;;;5.60;97.40;;;;;;8299630;28;20216;-80
2021/11/28 08:59:18;;;;;;;6.77;5.03;;;5.80;97.40;;;;;;8307313;28;20442;-80
2021/11/28 09:03:18;;;;;;;6.37;5.73;;;6.00;97.10;;;;;;8284808;28;20447;-81
2021/11/28 09:07:19;;;;;;;6.30;5.43;;;6.20;96.90;;;;;;8304414;28;20491;-81
2021/11/28 09:11:19;;;;;;;8.07;4.90;;;6.50;96.70;;;;;;8301533;28;20190;-79
2021/11/28 09:15:21;;;;;;;7.37;5.70;;;7.10;96.40;;;;;;8284461;28;20210;-79
2021/11/28 09:27:48;;;;;;;8.27;6.63;;;7.30;94.10;;;;;;8304121;28;20467;-80
2021/11/28 09:31:48;;;;;;;7.63;6.17;;;7.20;94.50;;;;;;8283505;28;20437;-81
2021/11/28 09:35:49;;;;;;;11.10;6.70;;;7.10;94.80;;;;;;8285710;28;20585;-79
2021/11/28 09:39:50;;;;;;;11.77;7.50;;;7.00;94.70;;;;;;8282613;28;20641;-81
2021/11/28 09:43:54;;;;;;;10.07;7.27;;;7.10;94.80;;;;;;8280835;28;20191;-80
2021/11/28 09:47:57;;;;;;;8.33;6.57;;;7.10;94.70;;;;;;8286309;28;20374;-79
2021/11/28 09:52:05;;;;;;;10.87;7.80;;;7.00;94.60;;;;;;8280933;28;20545;-80
2021/11/28 09:56:07;;;;;;;10.53;6.90;;;6.90;94.60;;;;;;8264228;28;20591;-81
2021/11/28 10:00:13;;;;;;;13.83;7.27;;;6.80;94.70;;;;;;8266661;28;20457;-80
2021/11/28 10:04:15;;;;;;;10.80;6.90;;;6.70;94.80;;;;;;8263390;28;20479;-81
2021/11/28 10:08:16;;;;;;;7.00;5.97;;;6.60;94.90;;;;;;8275554;28;20443;-79
2021/11/28 10:12:17;;;;;;;12.23;6.93;;;6.50;94.90;;;;;;8276733;28;20461;-80
2021/11/28 10:16:19;;;;;;;15.00;8.90;;;6.40;95.20;;;;;;8283014;28;20577;-80
2021/11/28 10:20:23;;;;;;;17.27;7.17;;;6.50;95.30;;;;;;8266917;28;20180;-79
2021/11/28 10:24:23;;;;;;;12.33;7.47;;;6.50;95.30;;;;;;8264639;28;20486;-81
2021/11/28 10:28:24;;;;;;;10.40;6.87;;;6.50;95.10;;;;;;8283638;28;20470;-81
2021/11/28 10:32:25;;;;;;;15.80;8.17;;;6.50;95.10;;;;;;8293395;28;20177;-80
2021/11/28 10:36:29;;;;;;;14.30;8.60;;;6.30;95.20;;;;;;8268683;28;20250;-79
2021/11/28 10:40:29;;;;;;;11.10;9.10;;;6.20;95.50;;;;;;8274836;28;20450;-80
2021/11/28 10:44:30;;;;;;;17.40;8.67;;;6.20;95.60;;;;;;8266659;28;20455;-80
2021/11/28 10:48:31;;;;;;;18.97;8.70;;;6.20;95.80;;;;;;8284279;28;20200;-80
2021/11/28 10:52:32;;;;;;;11.07;7.70;;;6.20;95.60;;;;;;8272055;28;20196;-79
2021/11/28 10:56:32;;;;;;;17.17;9.53;;;6.20;95.70;;;;;;8271539;28;20482;-80
2021/11/28 11:00:53;;;;;;;12.40;8.50;;;6.20;95.90;;;;;;8271694;28;20211;-79
2021/11/28 11:04:56;;;;;;;16.03;10.43;;;6.20;95.80;;;;;;8259649;28;20461;-79
2021/11/28 11:09:42;;;;;;;16.00;10.57;;;6.20;96.00;;;;;;8269499;28;20486;-81
2021/11/28 11:14:02;;;;;;;16.40;9.80;;;6.10;96.30;;;;;;8207335;28;20452;-80
2021/11/28 11:18:05;;;;;;;16.43;10.20;;;6.00;96.40;;;;;;8279193;28;20550;-80
2021/11/28 11:22:22;;;;;;;19.17;11.53;;;6.00;96.70;;;;;;8279451;28;20447;-79
2021/11/28 11:26:27;;;;;;;21.43;10.63;;;6.00;96.80;;;;;;8265687;28;20455;-81
2021/11/28 11:30:28;;;;;;;26.80;13.40;;;6.00;96.90;;;;;;8286621;28;21278;-80
2021/11/28 11:34:31;;;;;;;21.43;11.60;;;6.10;97.00;;;;;;8290487;28;20544;-81
2021/11/28 11:38:32;;;;;;;20.40;11.93;;;6.10;97.00;;;;;;8274035;28;20471;-81
2021/11/28 11:42:32;;;;;;;19.37;13.47;;;6.20;97.10;;;;;;8269072;28;20439;-80
2021/11/28 11:46:34;;;;;;;19.40;11.93;;;6.30;97.00;;;;;;8290527;28;20188;-80
2021/11/28 11:50:35;;;;;;;16.10;11.10;;;6.30;96.90;;;;;;8290874;28;20239;-80
2021/11/28 11:54:59;;;;;;;25.30;14.00;;;6.30;96.90;;;;;;8293670;28;20467;-79
2021/11/28 11:59:09;;;;;;;27.50;12.53;;;6.30;97.00;;;;;;8272624;28;20514;-80
2021/11/28 12:03:19;;;;;;;20.23;12.10;;;6.30;97.10;;;;;;8287318;28;20459;-79
2021/11/28 12:07:50;;;;;;;28.93;13.70;;;6.30;97.20;;;;;;8290553;28;20484;-81
2021/11/28 12:11:56;;;;;;;22.40;11.93;;;6.30;97.20;;;;;;8283414;28;20443;-78
2021/11/28 12:16:03;;;;;;;20.73;11.17;;;6.20;97.30;;;;;;8300829;28;20514;-79
2021/11/28 12:20:05;;;;;;;19.40;10.10;;;6.20;97.40;;;;;;8302121;28;20447;-80
2021/11/28 12:24:10;;;;;;;23.47;10.87;;;6.30;97.50;;;;;;8305709;28;20462;-79
2021/11/28 12:28:20;;;;;;;22.27;11.43;;;6.20;97.40;;;;;;8303566;28;20447;-79
2021/11/28 12:32:24;;;;;;;18.83;9.73;;;6.20;97.70;;;;;;8302461;28;20474;-78
2021/11/28 12:36:38;;;;;;;17.23;9.43;;;6.20;97.60;;;;;;8281969;28;21020;-78
2021/11/28 12:40:46;;;;;;;25.93;10.47;;;6.30;97.60;;;;;;8304831;28;20419;-81
2021/11/28 12:44:50;;;;;;;23.37;11.40;;;6.30;97.70;;;;;;8321066;28;20509;-80
2021/11/28 12:48:50;;;;;;;15.60;8.17;;;6.40;97.70;;;;;;8308637;28;20538;-80
2021/11/28 12:52:52;;;;;;;19.23;9.90;;;6.50;97.70;;;;;;8283362;28;20458;-80
2021/11/28 12:57:17;;;;;;;24.07;10.30;;;6.50;97.30;;;;;;8304750;28;20742;-80
2021/11/28 13:02:07;;;;;;;16.77;8.33;;;6.50;97.20;;;;;;8301945;28;20835;-80
2021/11/28 13:06:26;;;;;;;13.77;6.70;;;6.50;97.00;;;;;;8287415;28;20551;-80
2021/11/28 13:10:39;;;;;;;12.83;7.20;;;6.50;96.90;;;;;;8297319;28;20475;-81
2021/11/28 13:14:44;;;;;;;17.10;9.00;;;6.50;96.90;;;;;;8308174;28;20531;-81
2021/11/28 13:18:52;;;;;;;16.93;7.50;;;6.60;97.00;;;;;;8301665;28;20436;-78
2021/11/28 13:23:03;;;;;;;12.43;6.83;;;6.70;96.80;;;;;;8290756;28;20505;-79
2021/11/28 13:27:04;;;;;;;16.77;8.17;;;6.70;96.60;;;;;;3551670;28;10002113;-80
2021/11/28 13:31:08;;;;;;;13.23;6.90;;;6.80;96.50;;;;;;8328456;28;20183;-81
2021/11/28 13:35:16;;;;;;;18.00;9.77;;;6.70;96.30;;;;;;8329051;28;20476;-80
2021/11/28 13:39:19;;;;;;;13.20;7.23;;;6.70;96.50;;;;;;8315295;28;20441;-80
2021/11/28 13:43:41;;;;;;;15.10;8.33;;;6.70;96.50;;;;;;8318588;28;20435;-80
2021/11/28 13:47:49;;;;;;;22.63;8.40;;;6.70;96.50;;;;;;8341727;28;20457;-80
2021/11/28 13:51:52;;;;;;;13.87;9.10;;;6.70;96.40;;;;;;8316375;28;20434;-81
2021/11/28 13:55:53;;;;;;;19.90;10.00;;;6.70;96.40;;;;;;8345737;28;20474;-81
2021/11/28 14:00:04;;;;;;;19.23;11.53;;;6.70;96.30;;;;;;8327246;28;20500;-81
2021/11/28 14:04:25;;;;;;;22.70;12.13;;;6.70;96.30;;;;;;8328071;28;20232;-80
2021/11/28 14:08:27;;;;;;;22.50;10.10;;;6.70;96.40;;;;;;8335292;28;20460;-82
2021/11/28 14:12:30;;;;;;;21.63;12.07;;;6.70;96.40;;;;;;8328292;28;20471;-80
2021/11/28 14:16:31;;;;;;;25.03;13.50;;;6.70;96.40;;;;;;8340491;28;20474;-80
2021/11/28 14:20:36;;;;;;;19.20;10.67;;;6.60;96.30;;;;;;8331392;28;20473;-78
2021/11/28 14:24:37;;;;;;;28.57;13.90;;;6.60;96.00;;;;;;8341257;28;20195;-79
2021/11/28 14:28:39;;;;;;;23.00;11.93;;;6.50;96.20;;;;;;8326437;28;20439;-79
2021/11/28 14:32:39;;;;;;;25.90;11.70;;;6.50;96.30;;;;;;8338755;28;20266;-77
2021/11/28 14:36:40;;;;;;;24.50;13.20;;;6.50;96.40;;;;;;8332716;28;20501;-81
2021/11/28 14:40:56;;;;;;;22.80;11.00;;;6.50;96.30;;;;;;8322403;28;20267;-79
2021/11/28 14:44:57;;;;;;;21.07;11.33;;;6.50;96.20;;;;;;8330452;28;20455;-80
2021/11/28 14:49:07;;;;;;;21.03;12.00;;;6.40;96.30;;;;;;8339925;28;20443;-78
2021/11/28 14:53:11;;;;;;;22.87;12.37;;;6.40;96.40;;;;;;8336829;28;20446;-80
2021/11/28 14:57:15;;;;;;;28.97;13.37;;;6.40;96.50;;;;;;8340477;28;20470;-80
2021/11/28 15:01:21;;;;;;;25.73;13.20;;;6.40;96.50;;;;;;8331107;28;20549;-79
2021/11/28 15:05:22;;;;;;;21.27;11.93;;;6.40;96.60;;;;;;8328327;28;20509;-81
2021/11/28 15:09:38;;;;;;;26.00;13.07;;;6.40;96.60;;;;;;8328637;28;20455;-81
2021/11/28 15:13:39;;;;;;;33.87;14.43;;;6.40;96.70;;;;;;8312320;28;20443;-81
2021/11/28 15:17:39;;;;;;;29.70;14.03;;;6.30;96.70;;;;;;8331736;28;20563;-80
2021/11/28 15:21:40;;;;;;;21.60;12.60;;;6.30;96.70;;;;;;8321840;28;20193;-82
2021/11/28 15:25:41;;;;;;;25.50;14.17;;;6.20;96.80;;;;;;8319370;28;20302;-80
2021/11/28 15:29:42;;;;;;;21.30;12.40;;;6.20;96.90;;;;;;8325226;28;20518;-81
2021/11/28 15:33:43;;;;;;;23.30;12.83;;;6.20;97.00;;;;;;8341296;28;20247;-82
2021/11/28 15:37:44;;;;;;;26.47;14.43;;;6.10;97.10;;;;;;8329941;28;20484;-82
2021/11/28 15:41:45;;;;;;;23.10;14.03;;;6.10;97.20;;;;;;8327236;28;20628;-81
2021/11/28 15:45:47;;;;;;;22.10;12.73;;;6.00;97.30;;;;;;8342895;28;20453;-79
2021/11/28 15:49:47;;;;;;;27.83;14.80;;;6.00;97.30;;;;;;8344045;28;20470;-82
2021/11/28 15:53:48;;;;;;;30.70;14.50;;;6.00;97.30;;;;;;8345109;28;20211;-82
2021/11/28 15:57:49;;;;;;;21.77;12.90;;;5.90;97.30;;;;;;8321121;28;20227;-81
2021/11/28 16:01:50;;;;;;;27.40;12.97;;;5.90;97.30;;;;;;8344651;28;20192;-82
2021/11/28 16:05:52;;;;;;;25.43;13.97;;;5.80;97.20;;;;;;8334674;28;20976;-80
2021/11/28 16:09:54;;;;;;;24.00;12.97;;;5.80;97.20;;;;;;8337619;28;20454;-81
2021/11/28 16:13:55;;;;;;;27.00;12.33;;;5.80;97.20;;;;;;8337815;28;20445;-81
2021/11/28 16:17:56;;;;;;;29.47;14.50;;;5.80;97.10;;;;;;8334644;28;20494;-82
2021/11/28 16:21:56;;;;;;;29.77;14.60;;;5.70;96.90;;;;;;8336367;28;20255;-81
2021/11/28 16:25:57;;;;;;;25.67;13.10;;;5.70;96.80;;;;;;8333248;28;20188;-80
2021/11/28 16:29:58;;;;;;;46.33;12.97;;;5.70;96.80;;;;;;8340378;28;20271;-80
2021/11/28 16:33:59;;;;;;;32.80;16.07;;;5.70;96.70;;;;;;8335728;28;20188;-81
2021/11/28 16:37:59;;;;;;;27.13;14.17;;;5.70;96.60;;;;;;8344092;28;20336;-82
2021/11/28 16:42:00;;;;;;;32.90;16.03;;;5.70;96.60;;;;;;8340307;28;20211;-82
2021/11/28 16:46:01;;;;;;;19.40;12.67;;;5.60;96.70;;;;;;8342695;28;20184;-80
2021/11/28 16:50:02;;;;;;;25.10;13.90;;;5.60;96.80;;;;;;8345857;28;20180;-82
2021/11/28 16:54:08;;;;;;;26.23;13.93;;;5.50;97.00;;;;;;8348177;28;20279;-81
2021/11/28 16:58:09;;;;;;;24.40;13.77;;;5.50;97.00;;;;;;8360588;28;21020;-81
2021/11/28 17:02:10;;;;;;;21.87;12.70;;;5.50;97.10;;;;;;8340127;28;20447;-83
2021/11/28 17:06:11;;;;;;;33.23;17.27;;;5.50;97.10;;;;;;8344757;28;20474;-84
2021/11/28 17:10:20;;;;;;;26.63;14.20;;;5.50;97.10;;;;;;8347732;28;20188;-81
2021/11/28 17:14:21;;;;;;;26.60;15.83;;;5.60;97.10;;;;;;8310141;28;20466;-79
2021/11/28 17:18:22;;;;;;;33.73;14.10;;;5.50;97.10;;;;;;8331382;28;20442;-77
2021/11/28 17:22:22;;;;;;;32.33;15.10;;;5.60;97.10;;;;;;8324986;28;20450;-78
2021/11/28 17:26:25;;;;;;;32.17;14.87;;;5.60;97.10;;;;;;8329463;28;20226;-81
2021/11/28 17:30:26;;;;;;;34.87;15.83;;;5.60;97.20;;;;;;8331024;28;20194;-81
2021/11/28 17:34:28;;;;;;;32.27;16.10;;;5.60;97.20;;;;;;8333494;28;20464;-80
2021/11/28 17:38:29;;;;;;;35.60;15.80;;;5.60;97.30;;;;;;8346106;28;20442;-80
2021/11/28 17:42:31;;;;;;;41.37;17.00;;;5.60;97.30;;;;;;8337572;28;20442;-79
2021/11/28 17:46:32;;;;;;;31.97;15.53;;;5.70;97.40;;;;;;8325849;28;20329;-79
2021/11/28 17:50:33;;;;;;;24.50;15.20;;;5.70;97.40;;;;;;8326533;28;20492;-81
2021/11/28 17:54:33;;;;;;;30.53;15.40;;;5.70;97.40;;;;;;8336759;28;20569;-82
2021/11/28 17:58:34;;;;;;;39.47;17.50;;;5.70;97.40;;;;;;8315634;28;20444;-81
2021/11/28 18:02:34;;;;;;;38.47;18.30;;;5.70;97.50;;;;;;8334164;28;20188;-80
2021/11/28 18:06:35;;;;;;;36.87;18.43;;;5.70;97.50;;;;;;8334840;28;20235;-81
2021/11/28 18:10:37;;;;;;;38.83;17.50;;;5.70;97.40;;;;;;8340840;28;20245;-79
2021/11/28 18:14:37;;;;;;;44.43;16.93;;;5.70;97.40;;;;;;8316767;28;20354;-80
2021/11/28 18:18:38;;;;;;;36.90;17.23;;;5.70;97.40;;;;;;8337215;28;20446;-81
2021/11/28 18:22:39;;;;;;;34.33;18.80;;;5.70;97.40;;;;;;8322639;28;20184;-80
2021/11/28 18:26:40;;;;;;;35.50;17.90;;;5.70;97.40;;;;;;8334942;28;20235;-80
2021/11/28 18:30:42;;;;;;;31.47;16.30;;;5.70;97.30;;;;;;8332957;28;20944;-80
2021/11/28 18:34:43;;;;;;;36.47;16.57;;;5.70;97.40;;;;;;8335970;28;20788;-80
2021/11/28 18:38:44;;;;;;;34.70;16.53;;;5.70;97.40;;;;;;8324161;28;20449;-80
2021/11/28 18:42:45;;;;;;;35.80;15.73;;;5.70;97.50;;;;;;8329321;28;20176;-81
2021/11/28 18:46:46;;;;;;;42.97;17.77;;;5.70;97.50;;;;;;8325795;28;20442;-80
2021/11/28 18:50:47;;;;;;;35.83;15.90;;;5.70;97.60;;;;;;8324392;28;20934;-80
2021/11/28 18:54:48;;;;;;;35.57;18.00;;;5.70;97.90;;;;;;8315976;28;20476;-81
2021/11/28 18:58:50;;;;;;;40.13;18.77;;;5.60;98.20;;;;;;8322352;28;20183;-80
2021/11/28 19:02:51;;;;;;;32.83;14.30;;;5.50;98.50;;;;;;8318668;28;20469;-79
2021/11/28 19:06:52;;;;;;;42.57;18.13;;;5.40;98.70;;;;;;8315894;28;20547;-80
2021/11/28 19:10:58;;;;;;;30.97;14.83;;;5.40;99.00;;;;;;8314135;28;20553;-79
2021/11/28 19:15:00;;;;;;;36.73;15.40;;;5.40;99.10;;;;;;8299450;28;20274;-81
2021/11/28 19:19:03;;;;;;;35.63;17.77;;;5.30;99.30;;;;;;8299777;28;20450;-80
2021/11/28 19:23:04;;;;;;;31.80;17.40;;;5.30;99.60;;;;;;8318451;28;20474;-80
2021/11/28 19:27:04;;;;;;;36.43;14.50;;;5.30;99.70;;;;;;8314612;28;20454;-81
2021/11/28 19:31:05;;;;;;;33.43;15.13;;;5.30;99.90;;;;;;8310174;28;20180;-81
2021/11/28 19:35:07;;;;;;;23.70;11.07;;;5.40;99.90;;;;;;8315536;28;20214;-81
2021/11/28 19:39:10;;;;;;;24.60;11.13;;;5.40;99.90;;;;;;8300091;28;20238;-80
2021/11/28 19:43:11;;;;;;;23.23;8.80;;;5.40;99.90;;;;;;8313588;28;20447;-82
2021/11/28 19:47:15;;;;;;;13.43;7.97;;;5.30;99.90;;;;;;8315107;28;20532;-84
2021/11/28 19:51:16;;;;;;;19.33;7.40;;;5.30;99.90;;;;;;8314698;28;20466;-80
2021/11/28 19:55:16;;;;;;;13.63;6.33;;;5.20;99.90;;;;;;8317260;28;20713;-82
2021/11/28 19:59:17;;;;;;;9.23;3.90;;;5.20;99.90;;;;;;8316969;28;20195;-81
2021/11/28 20:03:19;;;;;;;7.57;4.73;;;5.20;99.90;;;;;;8313941;28;20184;-83
2021/11/28 20:07:20;;;;;;;10.07;3.80;;;5.20;99.90;;;;;;8324301;28;20236;-79
2021/11/28 20:11:21;;;;;;;12.17;5.80;;;5.10;99.90;;;;;;8321814;28;20454;-79
2021/11/28 20:15:22;;;;;;;5.33;4.23;;;5.10;99.90;;;;;;8306138;28;20223;-84
2021/11/28 20:19:28;;;;;;;7.27;5.20;;;5.10;99.90;;;;;;8305430;28;20459;-80
2021/11/28 20:23:29;;;;;;;11.57;5.13;;;5.10;99.90;;;;;;8316555;28;20215;-81
2021/11/28 20:27:30;;;;;;;5.80;4.30;;;5.10;99.90;;;;;;8331870;28;20454;-82
2021/11/28 20:31:31;;;;;;;6.63;3.87;;;5.10;99.90;;;;;;8329005;28;20184;-81
2021/11/28 20:35:31;;;;;;;12.77;5.57;;;5.10;99.90;;;;;;8329066;28;20474;-80
2021/11/28 20:39:32;;;;;;;11.90;5.17;;;5.10;99.90;;;;;;8333217;28;20207;-80
2021/11/28 20:43:33;;;;;;;11.07;4.93;;;5.20;99.90;;;;;;8338164;28;20194;-84
2021/11/28 20:47:35;;;;;;;7.83;5.20;;;5.20;99.90;;;;;;8335695;28;20938;-82
2021/11/28 20:51:36;;;;;;;6.07;4.07;;;5.20;99.90;;;;;;8334648;28;20445;-82
2021/11/28 20:55:38;;;;;;;5.60;4.17;;;5.20;99.90;;;;;;8331378;28;20814;-82
2021/11/28 20:59:38;;;;;;;4.23;3.70;;;5.20;99.90;;;;;;8332591;28;20450;-82
2021/11/28 21:03:39;;;;;;;4.70;4.30;;;5.20;99.90;;;;;;8327038;28;20490;-82
2021/11/28 21:07:40;;;;;;;7.73;4.20;;;5.20;99.90;;;;;;8335626;28;20291;-85
2021/11/28 21:11:42;;;;;;;6.00;3.63;;;5.20;99.90;;;;;;8336453;28;20196;-83
2021/11/28 21:15:44;;;;;;;5.87;3.83;;;5.20;99.90;;;;;;8327446;28;20204;-84
2021/11/28 21:19:47;;;;;;;4.37;3.97;;;5.20;99.90;;;;;;8354743;28;20516;-81